createdAt,value
2023-02-01T00:01:14.916Z,82.10
2023-02-01T00:03:41.985Z,81.67
2023-02-01T00:06:12.916Z,81.64
2023-02-01T00:08:49.046Z,81.75
2023-02-01T00:11:16.283Z,81.81
2023-02-01T00:13:45.830Z,81.70
2023-02-01T00:16:17.803Z,82.11
2023-02-01T00:18:46.225Z,82.65
2023-02-01T00:21:17.227Z,83.25
2023-02-01T00:23:44.582Z,84.05
2023-02-01T00:26:20.528Z,85.04
2023-02-01T00:28:47.556Z,83.06
2023-02-01T00:31:14.407Z,82.81
2023-02-01T00:33:41.413Z,83.18
2023-02-01T00:36:10.663Z,83.90
2023-02-01T00:38:39.025Z,84.13
2023-02-01T00:41:15.491Z,84.00
2023-02-01T00:43:43.561Z,83.99
2023-02-01T00:46:10.959Z,83.68
2023-02-01T00:48:39.130Z,83.83
2023-02-01T00:51:08.706Z,84.11
2023-02-01T00:53:35.951Z,84.09
2023-02-01T00:56:06.535Z,84.71
2023-02-01T00:58:34.763Z,85.06
2023-02-01T01:01:09.494Z,84.78
2023-02-01T01:03:39.096Z,83.43
2023-02-01T01:06:12.398Z,84.41
2023-02-01T01:08:40.688Z,83.95
2023-02-01T01:11:10.338Z,83.12
2023-02-01T01:13:37.607Z,83.51
2023-02-01T01:16:06.612Z,83.47
2023-02-01T01:18:34.889Z,82.91
2023-02-01T01:21:02.311Z,83.18
2023-02-01T01:23:29.331Z,81.52
2023-02-01T01:25:58.939Z,81.67
2023-02-01T01:28:26.375Z,82.48
2023-02-01T01:30:53.397Z,83.99
2023-02-01T01:33:20.658Z,83.33
2023-02-01T01:35:48.092Z,81.84
2023-02-01T01:38:14.975Z,81.86
2023-02-01T01:40:46.938Z,82.14
2023-02-01T01:43:17.760Z,82.26
2023-02-01T01:48:41.458Z,83.17
2023-02-01T01:51:15.396Z,83.15
2023-02-01T01:53:54.557Z,84.03
2023-02-01T01:56:21.699Z,83.92
2023-02-01T01:58:48.678Z,83.91
2023-02-01T02:01:16.215Z,85.14
2023-02-01T02:03:45.598Z,85.21
2023-02-01T02:06:34.603Z,85.33
2023-02-01T02:09:01.755Z,85.07
2023-02-01T02:11:28.646Z,85.82
2023-02-01T02:13:57.107Z,86.15
2023-02-01T02:16:33.308Z,85.33
2023-02-01T02:19:18.699Z,85.64
2023-02-01T02:22:19.010Z,87.18
2023-02-01T02:25:04.952Z,88.51
2023-02-01T02:28:00.461Z,90.86
2023-02-01T02:31:04.933Z,92.33
2023-02-01T02:33:48.880Z,95.28
2023-02-01T02:36:35.477Z,98.79
2023-02-01T02:39:09.585Z,99.79
2023-02-01T02:42:09.524Z,100.00
2023-02-01T02:45:17.095Z,100.00
2023-02-01T02:48:18.074Z,100.00
2023-02-01T02:51:06.381Z,99.14
2023-02-01T02:54:18.372Z,97.95
2023-02-01T02:57:06.667Z,98.43
2023-02-01T02:59:54.620Z,100.00
2023-02-01T03:02:41.104Z,99.91
2023-02-01T03:05:10.126Z,100.00
2023-02-01T03:07:46.291Z,100.00
2023-02-01T03:10:42.874Z,100.00
2023-02-01T03:13:18.059Z,100.00
2023-02-01T03:16:02.519Z,100.00
2023-02-01T03:18:40.720Z,99.40
2023-02-01T03:21:17.514Z,100.00
2023-02-01T03:23:47.866Z,100.00
2023-02-01T03:26:19.491Z,100.00
2023-02-01T03:28:57.232Z,100.00
2023-02-01T03:31:25.594Z,100.00
2023-02-01T03:33:52.636Z,100.00
2023-02-01T03:36:31.665Z,100.00
2023-02-01T03:42:30.331Z,97.98
2023-02-01T03:45:11.523Z,97.25
2023-02-01T03:47:44.187Z,96.44
2023-02-01T03:50:14.050Z,96.63
2023-02-01T03:52:45.652Z,96.44
2023-02-01T03:55:14.726Z,96.93
2023-02-01T03:57:47.375Z,97.31
2023-02-01T04:00:19.093Z,98.56
2023-02-01T04:02:47.982Z,99.39
2023-02-01T04:05:19.763Z,97.51
2023-02-01T04:07:49.994Z,97.51
2023-02-01T04:10:26.509Z,96.86
2023-02-01T04:12:55.697Z,96.61
2023-02-01T04:15:24.228Z,96.20
2023-02-01T04:17:51.118Z,95.89
2023-02-01T04:20:18.334Z,95.63
2023-02-01T04:22:45.541Z,94.92
2023-02-01T04:25:12.301Z,94.36
2023-02-01T04:30:10.932Z,93.37
2023-02-01T04:32:38.593Z,92.59
2023-02-01T04:35:06.255Z,93.36
2023-02-01T04:37:33.216Z,94.14
2023-02-01T04:40:00.144Z,95.48
2023-02-01T04:42:27.207Z,96.72
2023-02-01T04:44:54.141Z,95.00
2023-02-01T04:47:21.009Z,92.98
2023-02-01T04:49:47.909Z,93.54
2023-02-01T04:52:16.256Z,93.95
2023-02-01T04:54:43.201Z,93.96
2023-02-01T04:57:10.073Z,93.61
2023-02-01T04:59:37.000Z,93.16
2023-02-01T05:02:03.825Z,91.74
2023-02-01T05:04:30.801Z,91.25
2023-02-01T05:06:57.688Z,91.58
2023-02-01T05:09:24.459Z,91.21
2023-02-01T05:12:10.356Z,90.90
2023-02-01T05:14:37.396Z,88.09
2023-02-01T05:17:07.607Z,85.19
2023-02-01T05:19:34.977Z,82.59
2023-02-01T05:22:15.937Z,81.10
2023-02-01T05:24:42.931Z,79.57
2023-02-01T05:27:09.649Z,79.93
2023-02-01T05:29:36.724Z,79.00
2023-02-01T05:32:20.854Z,78.07
2023-02-01T05:34:48.700Z,76.78
2023-02-01T05:37:15.677Z,76.02
2023-02-01T05:39:42.760Z,75.85
2023-02-01T05:42:09.818Z,75.90
2023-02-01T05:44:37.067Z,75.77
2023-02-01T05:47:04.809Z,75.04
2023-02-01T05:49:31.614Z,75.01
2023-02-01T05:52:00.364Z,74.20
2023-02-01T05:54:27.585Z,74.01
2023-02-01T05:56:56.014Z,74.08
2023-02-01T05:59:23.624Z,73.63
2023-02-01T06:01:50.432Z,73.62
2023-02-01T06:04:17.338Z,73.46
2023-02-01T06:06:44.408Z,73.94
2023-02-01T06:09:11.227Z,73.70
2023-02-01T06:11:38.056Z,74.14
2023-02-01T06:14:05.015Z,74.20
2023-02-01T06:16:32.802Z,74.05
2023-02-01T06:18:59.581Z,74.67
2023-02-01T06:21:26.661Z,74.35
2023-02-01T06:23:58.681Z,73.93
2023-02-01T06:26:26.218Z,73.73
2023-02-01T06:28:53.984Z,73.87
2023-02-01T06:31:22.662Z,74.17
2023-02-01T06:33:50.035Z,73.86
2023-02-01T06:36:17.390Z,73.90
2023-02-01T06:38:44.892Z,72.14
2023-02-01T06:41:12.291Z,72.33
2023-02-01T06:43:44.309Z,71.65
2023-02-01T06:46:13.671Z,71.03
2023-02-01T06:48:41.606Z,70.42
2023-02-01T06:51:21.054Z,69.45
2023-02-01T06:53:48.261Z,69.78
2023-02-01T06:56:14.992Z,70.25
2023-02-01T06:58:41.915Z,70.33
2023-02-01T07:01:10.557Z,69.35
2023-02-01T07:03:37.753Z,69.51
2023-02-01T07:06:05.637Z,68.46
2023-02-01T07:08:34.853Z,68.32
2023-02-01T07:11:06.390Z,67.73
2023-02-01T07:13:33.709Z,66.76
2023-02-01T07:16:06.211Z,65.61
2023-02-01T07:18:33.619Z,65.56
2023-02-01T07:21:00.683Z,66.23
2023-02-01T07:23:28.311Z,66.50
2023-02-01T07:25:59.943Z,65.68
2023-02-01T07:28:27.424Z,65.74
2023-02-01T07:30:54.540Z,65.01
2023-02-01T07:33:24.241Z,64.65
2023-02-01T07:35:52.584Z,63.99
2023-02-01T07:38:20.770Z,63.87
2023-02-01T07:40:47.493Z,63.50
2023-02-01T07:43:15.950Z,63.12
2023-02-01T07:45:50.314Z,63.35
2023-02-01T07:48:17.319Z,63.40
2023-02-01T07:50:44.153Z,63.52
2023-02-01T07:53:11.075Z,62.92
2023-02-01T07:55:49.589Z,63.79
2023-02-01T07:58:19.673Z,64.07
2023-02-01T08:01:08.606Z,63.77
2023-02-01T08:03:36.679Z,64.18
2023-02-01T08:06:03.892Z,64.00
2023-02-01T08:08:30.948Z,63.65
2023-02-01T08:11:06.714Z,63.57
2023-02-01T08:13:36.435Z,63.27
2023-02-01T08:16:06.342Z,63.01
2023-02-01T08:18:33.839Z,63.44
2023-02-01T08:21:05.957Z,63.71
2023-02-01T08:23:33.459Z,64.03
2023-02-01T08:26:18.032Z,63.41
2023-02-01T08:28:54.405Z,62.77
2023-02-01T08:31:24.123Z,63.75
2023-02-01T08:33:57.727Z,63.68
2023-02-01T08:36:26.847Z,63.52
2023-02-01T08:38:54.024Z,62.96
2023-02-01T08:41:25.302Z,63.75
2023-02-01T08:43:53.114Z,62.39
2023-02-01T08:46:20.243Z,62.03
2023-02-01T08:49:47.720Z,61.81
2023-02-01T08:52:16.296Z,62.19
2023-02-01T08:54:44.846Z,61.92
2023-02-01T08:57:15.388Z,62.14
2023-02-01T08:59:42.360Z,62.38
2023-02-01T09:02:14.607Z,61.70
2023-02-01T09:04:42.365Z,61.60
2023-02-01T09:07:14.409Z,61.23
2023-02-01T09:09:41.328Z,61.46
2023-02-01T09:12:08.378Z,61.39
2023-02-01T09:14:35.414Z,59.87
2023-02-01T09:17:02.818Z,59.61
2023-02-01T09:19:29.650Z,59.88
2023-02-01T09:21:56.653Z,60.17
2023-02-01T09:24:23.803Z,60.47
2023-02-01T09:26:53.758Z,60.34
2023-02-01T09:29:21.057Z,59.74
2023-02-01T09:32:01.481Z,59.83
2023-02-01T09:34:42.159Z,60.56
2023-02-01T09:37:10.474Z,59.48
2023-02-01T09:39:38.664Z,60.02
2023-02-01T09:42:23.938Z,59.06
2023-02-01T09:45:06.050Z,59.93
2023-02-01T09:47:37.799Z,59.59
2023-02-01T09:53:30.754Z,58.26
2023-02-01T09:56:07.702Z,58.21
2023-02-01T09:58:34.832Z,58.25
2023-02-01T10:01:05.271Z,57.28
2023-02-01T10:03:37.125Z,56.61
2023-02-01T10:06:29.465Z,56.59
2023-02-01T10:09:16.154Z,56.00
2023-02-01T10:12:01.573Z,56.22
2023-02-01T10:18:01.656Z,54.48
2023-02-01T10:20:41.422Z,52.83
2023-02-01T10:23:32.914Z,51.68
2023-02-01T10:26:17.713Z,49.40
2023-02-01T10:28:49.648Z,50.17
2023-02-01T10:31:18.958Z,52.63
2023-02-01T10:34:00.726Z,51.72
2023-02-01T10:36:37.097Z,52.27
2023-02-01T10:39:07.764Z,53.03
2023-02-01T10:41:37.810Z,53.42
2023-02-01T10:44:10.994Z,53.00
2023-02-01T10:46:38.023Z,52.30
2023-02-01T10:49:14.423Z,51.27
2023-02-01T10:51:47.297Z,52.29
2023-02-01T10:54:23.515Z,53.19
2023-02-01T10:56:53.667Z,52.62
2023-02-01T10:59:25.790Z,52.36
2023-02-01T11:02:09.997Z,54.33
2023-02-01T11:04:46.192Z,53.96
2023-02-01T11:07:31.367Z,54.45
2023-02-01T11:09:59.645Z,53.32
2023-02-01T11:12:34.278Z,54.36
2023-02-01T11:15:26.262Z,54.03
2023-02-01T11:17:58.352Z,52.92
2023-02-01T11:20:41.770Z,53.54
2023-02-01T11:23:30.512Z,52.83
2023-02-01T11:26:00.310Z,52.01
2023-02-01T11:28:32.336Z,52.23
2023-02-01T11:31:05.663Z,50.32
2023-02-01T11:33:37.101Z,51.69
2023-02-01T11:36:38.125Z,50.20
2023-02-01T11:39:19.455Z,49.45
2023-02-01T11:42:12.611Z,48.82
2023-02-01T11:44:42.336Z,49.95
2023-02-01T11:47:49.256Z,48.62
2023-02-01T11:50:19.807Z,49.61
2023-02-01T11:53:11.133Z,50.34
2023-02-01T11:55:50.447Z,50.47
2023-02-01T11:58:24.335Z,50.58
2023-02-01T12:01:21.520Z,50.21
2023-02-01T12:04:08.974Z,50.45
2023-02-01T12:06:50.903Z,49.92
2023-02-01T12:09:17.889Z,50.97
2023-02-01T12:12:23.313Z,51.20
2023-02-01T12:14:59.170Z,51.18
2023-02-01T12:20:41.233Z,50.98
2023-02-01T12:23:25.433Z,49.69
2023-02-01T12:26:11.121Z,50.37
2023-02-01T12:28:47.801Z,50.15
2023-02-01T12:31:41.295Z,48.92
2023-02-01T12:34:32.737Z,48.44
2023-02-01T12:37:18.084Z,48.62
2023-02-01T12:40:11.504Z,48.36
2023-02-01T12:43:26.612Z,49.44
2023-02-01T12:46:05.189Z,48.80
2023-02-01T12:48:38.721Z,47.86
2023-02-01T12:51:20.756Z,48.41
2023-02-01T12:54:16.129Z,47.62
2023-02-01T12:56:51.649Z,47.36
2023-02-01T13:00:11.220Z,46.12
2023-02-01T13:02:48.902Z,47.92
2023-02-01T13:05:26.412Z,47.45
2023-02-01T13:08:06.232Z,47.49
2023-02-01T13:10:49.743Z,48.05
2023-02-01T13:13:50.940Z,48.01
2023-02-01T13:16:28.423Z,48.43
2023-02-01T13:19:03.372Z,47.57
2023-02-01T13:21:36.634Z,46.77
2023-02-01T13:24:04.847Z,47.53
2023-02-01T13:26:34.517Z,46.51
2023-02-01T13:29:07.986Z,46.51
2023-02-01T13:31:54.254Z,47.41
2023-02-01T13:34:54.355Z,47.55
2023-02-01T13:37:50.056Z,47.59
2023-02-01T13:40:20.315Z,47.61
2023-02-01T13:42:52.805Z,47.42
2023-02-01T13:45:24.655Z,47.24
2023-02-01T13:47:55.593Z,46.99
2023-02-01T13:50:35.469Z,46.49
2023-02-01T13:53:12.801Z,46.99
2023-02-01T13:55:42.967Z,48.87
2023-02-01T13:58:09.811Z,47.45
2023-02-01T14:00:41.584Z,47.36
2023-02-01T14:03:20.724Z,47.28
2023-02-01T14:05:57.900Z,47.64
2023-02-01T14:08:39.243Z,48.98
2023-02-01T14:11:06.523Z,48.33
2023-02-01T14:13:33.555Z,49.28
2023-02-01T14:16:06.961Z,48.78
2023-02-01T14:18:42.150Z,48.73
2023-02-01T14:21:30.838Z,48.89
2023-02-01T14:23:57.692Z,49.57
2023-02-01T14:26:46.623Z,48.43
2023-02-01T14:29:20.872Z,48.97
2023-02-01T14:32:03.985Z,49.05
2023-02-01T14:34:37.089Z,48.89
2023-02-01T14:37:08.157Z,46.95
2023-02-01T14:40:01.481Z,47.40
2023-02-01T14:42:31.347Z,47.53
2023-02-01T14:45:24.284Z,46.54
2023-02-01T14:48:06.715Z,47.16
2023-02-01T14:50:33.969Z,47.02
2023-02-01T14:53:14.788Z,46.78
2023-02-01T14:55:41.761Z,47.62
2023-02-01T14:58:20.783Z,47.72
2023-02-01T15:00:59.846Z,47.35
2023-02-01T15:07:25.474Z,47.63
2023-02-01T15:09:55.932Z,48.26
2023-02-01T15:12:31.719Z,48.91
2023-02-01T15:15:17.247Z,48.94
2023-02-01T15:18:01.305Z,48.68
2023-02-01T15:20:31.324Z,48.92
2023-02-01T15:23:02.827Z,48.91
2023-02-01T15:25:32.835Z,49.16
2023-02-01T15:27:59.753Z,49.46
2023-02-01T15:30:30.972Z,57.48
2023-02-01T15:33:10.001Z,65.95
2023-02-01T15:36:35.218Z,54.02
2023-02-01T15:39:46.867Z,51.17
2023-02-01T15:42:20.419Z,51.70
2023-02-01T15:44:54.988Z,51.20
2023-02-01T15:47:28.007Z,52.51
2023-02-01T15:50:10.304Z,53.30
2023-02-01T15:55:52.473Z,53.11
2023-02-01T15:58:27.159Z,53.41
2023-02-01T16:00:57.102Z,54.27
2023-02-01T16:03:42.319Z,56.10
2023-02-01T16:06:32.622Z,57.75
2023-02-01T16:08:59.382Z,58.39
2023-02-01T16:11:41.709Z,59.42
2023-02-01T16:17:25.607Z,58.70
2023-02-01T16:19:52.918Z,59.69
2023-02-01T16:22:20.049Z,59.88
2023-02-01T16:24:47.219Z,59.98
2023-02-01T16:27:14.480Z,59.75
2023-02-01T16:29:42.903Z,61.00
2023-02-01T16:32:19.532Z,60.77
2023-02-01T16:34:48.125Z,61.22
2023-02-01T16:37:20.529Z,61.46
2023-02-01T16:39:47.653Z,61.99
2023-02-01T16:42:16.309Z,62.40
2023-02-01T16:44:43.477Z,63.04
2023-02-01T16:47:17.987Z,63.63
2023-02-01T16:49:48.643Z,63.73
2023-02-01T16:52:22.018Z,64.84
2023-02-01T16:54:49.779Z,65.21
2023-02-01T16:57:18.829Z,65.35
2023-02-01T16:59:50.134Z,66.97
2023-02-01T17:02:21.100Z,68.57
2023-02-01T17:04:49.875Z,68.84
2023-02-01T17:07:18.771Z,70.42
2023-02-01T17:09:46.811Z,70.41
2023-02-01T17:12:25.261Z,70.66
2023-02-01T17:14:52.822Z,70.97
2023-02-01T17:17:32.695Z,72.04
2023-02-01T17:20:04.827Z,73.16
2023-02-01T17:22:31.757Z,74.40
2023-02-01T17:24:58.523Z,74.97
2023-02-01T17:27:32.203Z,75.29
2023-02-01T17:30:10.479Z,75.51
2023-02-01T17:32:37.678Z,76.10
2023-02-01T17:35:04.694Z,76.65
2023-02-01T17:37:38.839Z,77.22
2023-02-01T17:40:06.471Z,78.27
2023-02-01T17:42:34.218Z,78.97
2023-02-01T17:45:27.984Z,78.46
2023-02-01T17:47:54.784Z,78.64
2023-02-01T17:50:21.895Z,78.71
2023-02-01T17:52:48.992Z,78.66
2023-02-01T17:55:23.350Z,79.89
2023-02-01T17:57:51.332Z,80.74
2023-02-01T18:00:19.268Z,80.38
2023-02-01T18:02:46.047Z,78.20
2023-02-01T18:05:16.119Z,76.38
2023-02-01T18:07:42.851Z,75.88
2023-02-01T18:10:11.696Z,75.97
2023-02-01T18:12:39.768Z,75.65
2023-02-01T18:15:26.337Z,75.07
2023-02-01T18:18:02.591Z,74.64
2023-02-01T18:20:29.439Z,75.77
2023-02-01T18:23:05.625Z,75.87
2023-02-01T18:25:38.576Z,75.13
2023-02-01T18:28:05.534Z,76.18
2023-02-01T18:30:34.596Z,77.45
2023-02-01T18:33:02.046Z,77.98
2023-02-01T18:35:33.588Z,77.89
2023-02-01T18:38:01.064Z,77.51
2023-02-01T18:40:40.083Z,76.40
2023-02-01T18:43:07.045Z,76.78
2023-02-01T18:45:45.197Z,76.84
2023-02-01T18:48:17.313Z,76.86
2023-02-01T18:50:46.066Z,77.34
2023-02-01T18:53:17.835Z,78.48
2023-02-01T18:55:44.983Z,78.49
2023-02-01T18:58:14.892Z,78.67
2023-02-01T19:00:42.586Z,79.44
2023-02-01T19:03:12.478Z,79.59
2023-02-01T19:05:39.843Z,80.35
2023-02-01T19:08:06.851Z,80.31
2023-02-01T19:10:34.522Z,79.99
2023-02-01T19:13:01.600Z,80.05
2023-02-01T19:15:28.714Z,80.29
2023-02-01T19:17:55.822Z,80.30
2023-02-01T19:20:25.993Z,81.78
2023-02-01T19:22:54.118Z,82.95
2023-02-01T19:25:24.943Z,84.66
2023-02-01T19:27:53.128Z,84.99
2023-02-01T19:30:21.713Z,86.09
2023-02-01T19:32:50.929Z,84.60
2023-02-01T19:35:19.840Z,85.64
2023-02-01T19:37:48.581Z,86.19
2023-02-01T19:40:19.848Z,85.68
2023-02-01T19:42:47.932Z,85.42
2023-02-01T19:45:15.660Z,87.68
2023-02-01T19:47:42.872Z,88.82
2023-02-01T19:50:15.811Z,88.25
2023-02-01T19:52:42.513Z,86.45
2023-02-01T19:55:09.671Z,85.50
2023-02-01T19:57:37.756Z,84.53
2023-02-01T20:00:08.478Z,83.83
2023-02-01T20:02:34.665Z,82.59
2023-02-01T20:05:01.928Z,83.64
2023-02-01T20:07:29.111Z,84.98
2023-02-01T20:09:56.101Z,84.83
2023-02-01T20:12:27.880Z,85.16
2023-02-01T20:14:55.843Z,85.27
2023-02-01T20:17:23.197Z,82.99
2023-02-01T20:19:50.389Z,82.13
2023-02-01T20:22:17.535Z,80.06
2023-02-01T20:24:44.567Z,80.58
2023-02-01T20:27:21.231Z,82.19
2023-02-01T20:29:52.213Z,82.06
2023-02-01T20:32:25.331Z,81.46
2023-02-01T20:34:53.969Z,81.44
2023-02-01T20:37:21.557Z,80.34
2023-02-01T20:39:48.600Z,79.19
2023-02-01T20:42:16.237Z,79.05
2023-02-01T20:44:44.321Z,80.14
2023-02-01T20:47:11.470Z,79.88
2023-02-01T20:49:40.565Z,80.24
2023-02-01T20:52:09.037Z,80.27
2023-02-01T20:54:36.391Z,81.15
2023-02-01T20:57:12.428Z,82.80
2023-02-01T21:02:32.458Z,85.10
2023-02-01T21:05:14.524Z,85.98
2023-02-01T21:07:41.705Z,87.51
2023-02-01T21:10:11.237Z,88.33
2023-02-01T21:12:38.787Z,89.80
2023-02-01T21:15:09.713Z,89.69
2023-02-01T21:17:39.715Z,89.99
2023-02-01T21:20:08.606Z,89.98
2023-02-01T21:22:35.704Z,90.09
2023-02-01T21:25:02.995Z,89.46
2023-02-01T21:27:29.909Z,87.43
2023-02-01T21:30:02.743Z,88.00
2023-02-01T21:32:30.153Z,87.47
2023-02-01T21:34:59.962Z,87.64
2023-02-01T21:37:27.309Z,87.69
2023-02-01T21:39:54.398Z,89.61
2023-02-01T21:42:22.180Z,89.37
2023-02-01T21:44:51.366Z,88.31
2023-02-01T21:47:21.297Z,89.11
2023-02-01T21:49:58.672Z,87.59
2023-02-01T21:52:26.714Z,88.93
2023-02-01T21:54:59.829Z,89.87
2023-02-01T21:57:29.329Z,91.42
2023-02-01T21:59:56.626Z,90.83
2023-02-01T22:02:25.128Z,91.54
2023-02-01T22:05:00.452Z,91.44
2023-02-01T22:07:27.703Z,91.44
2023-02-01T22:10:04.721Z,91.47
2023-02-01T22:12:31.723Z,91.15
2023-02-01T22:14:58.670Z,91.52
2023-02-01T22:17:25.834Z,91.22
2023-02-01T22:19:53.363Z,92.36
2023-02-01T22:22:20.191Z,91.77
2023-02-01T22:24:47.055Z,92.37
2023-02-01T22:27:14.740Z,93.42
2023-02-01T22:29:43.013Z,94.13
2023-02-01T22:32:10.044Z,91.50
2023-02-01T22:34:37.054Z,89.70
2023-02-01T22:37:04.001Z,89.95
2023-02-01T22:39:31.048Z,89.44
2023-02-01T22:41:58.489Z,90.72
2023-02-01T22:44:28.443Z,92.07
2023-02-01T22:46:57.193Z,92.85
2023-02-01T22:49:24.079Z,91.67
2023-02-01T22:51:53.953Z,91.44
2023-02-01T22:54:22.070Z,91.46
2023-02-01T22:56:49.785Z,91.54
2023-02-01T22:59:17.260Z,90.00
2023-02-01T23:01:44.804Z,89.49
2023-02-01T23:04:14.363Z,89.52
2023-02-01T23:06:41.711Z,89.79
2023-02-01T23:09:17.459Z,90.78
2023-02-01T23:11:45.052Z,91.38
2023-02-01T23:14:13.528Z,92.25
2023-02-01T23:16:41.555Z,92.10
2023-02-01T23:19:08.624Z,94.19
2023-02-01T23:21:35.736Z,94.69
2023-02-01T23:24:05.131Z,94.19
2023-02-01T23:26:32.506Z,94.34
2023-02-01T23:29:00.427Z,94.25
2023-02-01T23:31:33.214Z,92.73
2023-02-01T23:34:01.597Z,92.96
2023-02-01T23:36:29.479Z,93.36
2023-02-01T23:38:56.757Z,93.05
2023-02-01T23:41:24.880Z,95.18
2023-02-01T23:43:58.238Z,95.41
2023-02-01T23:46:30.751Z,95.02
2023-02-01T23:48:58.408Z,94.83
2023-02-01T23:51:26.024Z,92.47
2023-02-01T23:53:53.845Z,90.50
2023-02-01T23:56:28.252Z,92.35
2023-02-01T23:58:56.765Z,93.99
